Time;durP1;ratioP1;P1;durP2;ratioP2;P2;SDS_P1;SDS_P2;PMS_P1;PMS_P2;Temp;Humidity;BMP_temperature;BMP_pressure;BME280_temperature;BME280_humidity;BME280_pressure;Samples;Min_cycle;Max_cycle;Signal;HPM_P1;HPM_P2
2024/04/11 00:01:08;;;;;;;3.28;1.63;;;;;;;14.62;39.08;94485.31;5540016;25;19992;-85
2024/04/11 00:03:34;;;;;;;9.13;1.73;;;;;;;14.62;39.53;94485.31;5539938;26;20011;-84
2024/04/11 00:06:00;;;;;;;4.63;1.50;;;;;;;14.58;40.31;94489.75;5540808;25;19993;-84
2024/04/11 00:08:26;;;;;;;3.75;1.60;;;;;;;14.51;41.03;94491.31;5540234;26;20037;-84
2024/04/11 00:10:52;;;;;;;3.80;1.45;;;;;;;14.45;40.73;94486.16;5540414;26;20017;-84
2024/04/11 00:13:18;;;;;;;4.75;1.33;;;;;;;14.41;41.38;94481.72;5539737;25;20166;-85
2024/04/11 00:15:44;;;;;;;9.68;2.10;;;;;;;14.30;42.04;94478.63;5539747;26;19985;-84
2024/04/11 00:18:10;;;;;;;4.43;1.50;;;;;;;14.23;41.08;94479.13;5540400;26;19981;-84
2024/04/11 00:20:35;;;;;;;6.47;1.40;;;;;;;14.21;41.30;94486.69;5540141;25;19989;-84
2024/04/11 00:23:01;;;;;;;4.07;1.45;;;;;;;14.18;41.33;94473.94;5540129;26;19996;-85
2024/04/11 00:25:26;;;;;;;9.45;1.65;;;;;;;14.19;40.85;94475.50;5508346;26;20125;-86
2024/04/11 00:27:52;;;;;;;5.82;1.88;;;;;;;14.15;41.26;94474.56;5507826;25;20096;-85
2024/04/11 00:30:17;;;;;;;6.47;1.30;;;;;;;14.15;41.05;94481.84;5540118;26;20029;-85
2024/04/11 00:32:42;;;;;;;2.75;1.30;;;;;;;14.12;40.95;94482.47;5540628;26;19986;-85
2024/04/11 00:35:09;;;;;;;3.75;1.50;;;;;;;14.09;41.43;94477.75;5540845;25;19981;-83
2024/04/11 00:37:36;;;;;;;9.02;1.55;;;;;;;14.08;42.26;94476.16;5539680;25;19982;-85
2024/04/11 00:40:02;;;;;;;3.53;1.33;;;;;;;14.04;41.99;94478.69;5539982;25;20037;-85
2024/04/11 00:42:28;;;;;;;9.32;1.48;;;;;;;13.97;42.12;94473.06;5539597;25;19985;-85
2024/04/11 00:44:54;;;;;;;5.18;1.25;;;;;;;13.94;42.61;94481.72;5507810;26;19988;-85
2024/04/11 00:47:20;;;;;;;2.92;1.40;;;;;;;13.90;42.15;94486.13;5539842;25;19990;-85
2024/04/11 00:49:47;;;;;;;2.58;1.40;;;;;;;13.85;42.29;94485.19;5540037;25;20081;-86
2024/04/11 00:52:16;;;;;;;5.05;1.55;;;;;;;13.83;42.01;94482.06;5539765;25;20045;-85
2024/04/11 00:54:42;;;;;;;2.90;1.40;;;;;;;13.78;42.65;94486.78;5539369;25;19986;-85
2024/04/11 00:57:08;;;;;;;4.72;1.65;;;;;;;13.70;42.57;94488.38;5539783;26;20075;-85
2024/04/11 00:59:38;;;;;;;7.72;1.45;;;;;;;13.66;42.96;94487.44;5539795;25;20045;-84
2024/04/11 01:02:05;;;;;;;7.57;1.70;;;;;;;13.58;42.57;94482.88;5539846;25;20033;-84
2024/04/11 01:04:33;;;;;;;9.52;1.83;;;;;;;13.51;43.24;94487.91;5539408;26;20030;-85
2024/04/11 01:07:07;;;;;;;6.68;1.48;;;;;;;13.43;42.90;94490.28;5539358;26;19981;-85
2024/04/11 01:09:39;;;;;;;5.45;1.70;;;;;;;13.31;43.46;94486.66;5539699;25;19992;-85
2024/04/11 01:12:05;;;;;;;3.47;1.57;;;;;;;13.24;43.76;94487.88;5538812;25;19988;-84
2024/04/11 01:14:33;;;;;;;11.77;1.30;;;;;;;13.17;44.14;94481.44;5539317;25;20217;-85
2024/04/11 01:16:59;;;;;;;5.38;1.60;;;;;;;13.16;44.34;94495.91;5507583;26;20001;-84
2024/04/11 01:19:24;;;;;;;8.73;1.52;;;;;;;13.13;44.35;94491.97;5539559;25;19986;-84
2024/04/11 01:21:50;;;;;;;4.00;1.27;;;;;;;13.11;44.61;94493.38;5539041;26;19996;-84
2024/04/11 01:24:16;;;;;;;5.82;1.58;;;;;;;13.07;44.82;94492.41;5507533;26;19981;-84
2024/04/11 01:26:42;;;;;;;2.50;1.30;;;;;;;13.04;44.64;94499.97;5507247;26;20208;-84
2024/04/11 01:29:07;;;;;;;7.95;1.40;;;;;;;12.99;45.29;94497.47;5507021;26;19985;-85
2024/04/11 01:31:36;;;;;;;3.40;1.63;;;;;;;12.95;45.85;94495.72;5538796;26;19993;-84
2024/04/11 01:34:01;;;;;;;3.05;1.42;;;;;;;12.94;45.29;94499.50;5538937;26;19985;-85
2024/04/11 01:36:27;;;;;;;2.33;1.30;;;;;;;12.93;45.43;94495.25;5538877;26;19992;-85
2024/04/11 01:38:53;;;;;;;3.63;1.60;;;;;;;12.88;45.52;94508.75;5538654;25;20102;-85
2024/04/11 01:41:18;;;;;;;2.15;1.10;;;;;;;12.87;46.34;94509.88;5539151;25;20036;-85
2024/04/11 01:43:44;;;;;;;4.38;1.52;;;;;;;12.79;46.58;94503.41;5539148;25;20009;-86
2024/04/11 01:46:09;;;;;;;4.43;1.30;;;;;;;12.73;47.09;94510.00;5538808;26;20010;-85
2024/04/11 01:48:34;;;;;;;3.80;1.38;;;;;;;12.68;47.21;94504.78;5538907;25;19986;-86
2024/04/11 01:51:00;;;;;;;3.38;1.35;;;;;;;12.67;47.83;94517.34;5538730;25;19981;-85
2024/04/11 01:53:26;;;;;;;7.88;1.83;;;;;;;12.59;48.36;94510.88;5538729;25;19982;-85
2024/04/11 01:55:51;;;;;;;4.07;1.67;;;;;;;12.54;48.37;94504.91;5536830;25;20196;-85
2024/04/11 01:58:17;;;;;;;6.13;1.80;;;;;;;12.53;48.59;94505.97;5505136;26;20001;-85
2024/04/11 02:00:44;;;;;;;3.28;1.42;;;;;;;12.49;48.84;94500.47;5504477;26;19981;-85
2024/04/11 02:03:11;;;;;;;3.40;1.58;;;;;;;12.48;49.12;94508.81;5538310;26;20018;-86
2024/04/11 02:05:36;;;;;;;6.07;1.52;;;;;;;12.44;49.00;94512.09;5505498;26;19985;-86
2024/04/11 02:08:02;;;;;;;6.00;2.60;;;;;;;12.41;49.42;94511.91;5538455;25;20002;-85
2024/04/11 02:10:31;;;;;;;4.72;1.20;;;;;;;12.35;49.56;94510.47;5506221;26;20053;-85
2024/04/11 02:12:56;;;;;;;3.90;1.35;;;;;;;12.28;50.16;94513.59;5538240;25;20015;-86
2024/04/11 02:15:26;;;;;;;3.90;1.48;;;;;;;12.28;50.63;94499.44;5537937;25;19986;-86
2024/04/11 02:17:52;;;;;;;5.45;1.20;;;;;;;12.27;51.04;94508.53;5538195;26;20123;-85
2024/04/11 02:20:17;;;;;;;7.35;2.22;;;;;;;12.20;50.87;94515.13;5537637;26;19997;-85
2024/04/11 02:22:46;;;;;;;3.45;2.05;;;;;;;12.13;50.78;94508.63;5506266;26;19993;-85
2024/04/11 02:25:13;;;;;;;6.60;2.88;;;;;;;12.08;50.85;94512.22;5540239;25;19985;-84
2024/04/11 02:27:39;;;;;;;5.32;2.28;;;;;;;12.09;51.14;94519.16;5541883;25;19995;-84
2024/04/11 02:30:09;;;;;;;8.75;2.75;;;;;;;12.06;50.97;94513.63;5510280;26;20189;-85
2024/04/11 02:32:40;;;;;;;7.28;1.90;;;;;;;12.06;51.54;94524.31;5541967;26;19996;-86
2024/04/11 02:35:06;;;;;;;7.25;1.95;;;;;;;12.07;50.91;94521.34;5541768;25;19991;-85
2024/04/11 02:37:31;;;;;;;4.63;1.55;;;;;;;12.09;50.17;94523.69;5541633;25;19989;-85
2024/04/11 02:39:57;;;;;;;10.80;1.70;;;;;;;12.07;50.31;94529.38;5541564;25;19989;-86
2024/04/11 02:42:22;;;;;;;5.60;2.05;;;;;;;12.08;50.11;94525.59;5541535;25;19986;-86
2024/04/11 02:44:50;;;;;;;3.78;1.75;;;;;;;12.07;49.83;94532.03;5541618;26;19982;-86
2024/04/11 02:47:16;;;;;;;8.88;1.70;;;;;;;12.08;49.77;94538.94;5541223;26;20001;-88
2024/04/11 02:49:41;;;;;;;3.22;1.70;;;;;;;12.13;49.44;94541.50;5541461;25;19993;-88
2024/04/11 02:52:07;;;;;;;5.82;1.60;;;;;;;12.14;50.01;94540.41;5541936;25;20017;-87
2024/04/11 02:54:33;;;;;;;5.07;2.17;;;;;;;12.12;50.25;94534.56;5541520;25;20061;-88
2024/04/11 02:56:58;;;;;;;4.38;2.13;;;;;;;12.10;50.71;94544.00;5509474;26;19993;-87
2024/04/11 02:59:23;;;;;;;5.20;1.73;;;;;;;12.06;50.99;94537.69;5541104;25;20001;-87
2024/04/11 03:01:49;;;;;;;5.35;1.63;;;;;;;12.04;51.10;94543.31;5541077;26;19993;-85
2024/04/11 03:04:14;;;;;;;6.20;2.13;;;;;;;11.97;51.21;94542.97;5509859;25;20009;-87
2024/04/11 03:06:40;;;;;;;6.88;1.75;;;;;;;11.92;51.94;94541.19;5541037;25;20110;-88
2024/04/11 03:09:09;;;;;;;5.20;2.30;;;;;;;11.89;51.59;94549.84;5541343;26;20001;-87
2024/04/11 03:11:35;;;;;;;3.50;1.73;;;;;;;11.85;51.83;94549.63;5541032;26;20017;-87
2024/04/11 03:14:01;;;;;;;5.43;1.52;;;;;;;11.79;52.21;94548.16;5541166;26;19999;-84
2024/04/11 03:16:30;;;;;;;3.60;1.83;;;;;;;11.76;52.08;94559.44;5541710;25;19998;-86
2024/04/11 03:18:56;;;;;;;15.63;2.45;;;;;;;11.73;51.75;94543.25;5540767;26;19994;-86
2024/04/11 03:21:22;;;;;;;12.18;1.73;;;;;;;11.67;51.69;94561.25;5540514;25;19985;-85
2024/04/11 03:23:47;;;;;;;6.00;2.25;;;;;;;11.61;51.92;94563.25;5541563;26;19988;-83
2024/04/11 03:26:13;;;;;;;3.65;2.15;;;;;;;11.61;51.94;94560.56;5541460;25;19981;-84
2024/04/11 03:28:39;;;;;;;4.53;2.20;;;;;;;11.58;51.96;94568.41;5541154;25;19985;-84
2024/04/11 03:31:05;;;;;;;14.60;2.72;;;;;;;11.58;52.08;94569.22;5541078;26;20009;-86
2024/04/11 03:33:34;;;;;;;4.40;2.55;;;;;;;11.59;52.00;94572.66;5541061;25;19997;-85
2024/04/11 03:36:02;;;;;;;5.50;2.20;;;;;;;11.60;51.92;94571.56;5540757;26;19992;-86
2024/04/11 03:38:31;;;;;;;7.25;1.90;;;;;;;11.58;51.79;94582.56;5541098;26;19985;-85
2024/04/11 03:41:04;;;;;;;12.93;1.55;;;;;;;11.54;51.75;94578.91;5540770;26;19997;-83
2024/04/11 03:43:34;;;;;;;7.03;2.08;;;;;;;11.50;52.06;94583.28;5540595;25;19993;-85
2024/04/11 03:46:19;;;;;;;15.98;2.10;;;;;;;11.47;52.22;94581.19;5540914;26;19996;-86
2024/04/11 03:48:46;;;;;;;7.70;1.92;;;;;;;11.47;52.56;94594.53;5509391;26;20000;-85
2024/04/11 03:51:13;;;;;;;2.97;1.73;;;;;;;11.49;52.71;94592.34;5540399;25;19996;-85
2024/04/11 03:53:43;;;;;;;5.45;2.22;;;;;;;11.48;52.69;94589.97;5508711;26;20010;-85
2024/04/11 03:56:09;;;;;;;8.13;2.58;;;;;;;11.48;53.42;94596.13;5539832;26;19997;-86
2024/04/11 03:58:37;;;;;;;13.52;2.33;;;;;;;11.50;52.93;94604.63;5508007;25;20006;-87
2024/04/11 04:01:06;;;;;;;7.00;2.42;;;;;;;11.51;53.37;94594.72;5508400;26;19997;-87
2024/04/11 04:03:33;;;;;;;8.27;2.28;;;;;;;11.52;53.86;94602.44;5540598;25;19982;-86
2024/04/11 04:05:58;;;;;;;6.47;2.33;;;;;;;11.50;53.54;94609.97;5540285;26;20002;-86
2024/04/11 04:08:24;;;;;;;8.55;2.38;;;;;;;11.47;54.07;94599.09;5540052;25;20192;-86
2024/04/11 04:10:50;;;;;;;11.25;2.53;;;;;;;11.42;54.38;94602.66;5539610;25;20060;-86
2024/04/11 04:13:16;;;;;;;8.25;2.35;;;;;;;11.43;54.79;94609.56;5539648;25;20065;-86
2024/04/11 04:15:43;;;;;;;4.32;2.83;;;;;;;11.41;54.30;94606.41;5539499;25;20229;-86
2024/04/11 04:18:12;;;;;;;5.07;1.70;;;;;;;11.42;54.71;94613.34;5539451;25;20047;-87
2024/04/11 04:20:42;;;;;;;9.90;2.90;;;;;;;11.46;53.89;94600.97;5539786;25;19981;-87
2024/04/11 04:23:10;;;;;;;8.15;2.30;;;;;;;11.49;52.61;94602.25;5539690;26;19989;-89
2024/04/11 04:25:38;;;;;;;6.13;2.75;;;;;;;11.56;53.18;94606.09;5507826;26;19981;-88
2024/04/11 04:28:05;;;;;;;17.30;3.22;;;;;;;11.60;53.62;94600.94;5539813;26;20124;-88
2024/04/11 04:30:33;;;;;;;10.40;2.58;;;;;;;11.64;54.59;94601.91;5539721;26;19985;-86
2024/04/11 04:32:59;;;;;;;11.07;2.60;;;;;;;11.68;55.03;94608.22;5539179;25;19993;-86
2024/04/11 04:35:28;;;;;;;12.88;2.92;;;;;;;11.70;55.00;94607.94;5507582;26;20045;-86
2024/04/11 04:37:55;;;;;;;8.20;2.80;;;;;;;11.76;54.13;94604.84;5507648;26;20211;-86
2024/04/11 04:40:21;;;;;;;14.50;2.53;;;;;;;11.82;54.27;94610.84;5539493;26;19991;-86
2024/04/11 04:42:47;;;;;;;14.15;3.63;;;;;;;11.88;53.89;94619.53;5538941;25;20092;-84
2024/04/11 04:45:13;;;;;;;11.57;2.53;;;;;;;11.91;53.81;94613.66;5539729;25;19981;-86
2024/04/11 04:47:40;;;;;;;5.35;2.17;;;;;;;12.01;53.47;94619.53;5506076;26;19996;-86
2024/04/11 04:50:06;;;;;;;10.70;3.20;;;;;;;12.13;52.77;94610.97;5539070;26;20084;-86
2024/04/11 04:52:32;;;;;;;21.92;2.65;;;;;;;12.26;54.11;94613.88;5539662;25;19989;-86
2024/04/11 04:54:59;;;;;;;13.52;2.30;;;;;;;12.28;53.11;94617.03;5539454;25;20008;-86
2024/04/11 04:57:25;;;;;;;13.73;3.03;;;;;;;12.38;51.44;94622.13;5539410;25;20046;-86
2024/04/11 04:59:51;;;;;;;10.85;2.72;;;;;;;12.49;50.34;94620.78;5539037;25;20021;-86
2024/04/11 05:02:17;;;;;;;21.73;3.67;;;;;;;12.57;50.98;94625.38;5539039;25;19992;-87
2024/04/11 05:04:45;;;;;;;25.10;3.45;;;;;;;12.70;49.75;94629.09;5538995;26;19988;-87
2024/04/11 05:07:12;;;;;;;19.08;4.03;;;;;;;12.76;50.27;94635.06;5539196;25;20185;-87
2024/04/11 05:09:38;;;;;;;16.95;2.92;;;;;;;12.89;49.80;94642.22;5538877;25;20107;-87
2024/04/11 05:12:05;;;;;;;20.65;3.22;;;;;;;12.94;50.07;94639.41;5507549;26;19985;-87
2024/04/11 05:14:45;;;;;;;12.30;3.28;;;;;;;13.05;49.18;94639.94;5539119;25;19981;-88
2024/04/11 05:17:11;;;;;;;11.90;2.67;;;;;;;13.15;48.89;94649.59;5539250;25;19981;-88
2024/04/11 05:19:36;;;;;;;11.73;3.03;;;;;;;13.21;49.03;94651.03;5538903;25;20018;-87
2024/04/11 05:22:04;;;;;;;17.50;3.20;;;;;;;13.30;49.11;94648.41;5539189;26;19997;-87
2024/04/11 05:24:30;;;;;;;28.63;3.70;;;;;;;13.38;48.25;94651.09;5539093;25;20061;-88
2024/04/11 05:26:55;;;;;;;19.98;3.45;;;;;;;13.49;49.01;94659.63;5538869;26;20000;-88
2024/04/11 05:29:21;;;;;;;23.73;3.55;;;;;;;13.55;48.91;94660.28;5538856;26;19987;-88
2024/04/11 05:31:46;;;;;;;20.85;3.15;;;;;;;13.63;48.84;94664.84;5506830;26;19992;-87
2024/04/11 05:34:16;;;;;;;21.75;4.15;;;;;;;13.72;48.77;94662.19;5538130;25;19985;-87
2024/04/11 05:36:44;;;;;;;33.28;4.60;;;;;;;13.78;48.93;94661.75;5538639;25;20197;-85
2024/04/11 05:39:10;;;;;;;28.50;3.97;;;;;;;13.86;50.09;94660.19;5538385;26;19988;-86
2024/04/11 05:41:36;;;;;;;29.98;4.88;;;;;;;13.90;49.42;94666.50;5500158;26;19982;-86
2024/04/11 05:44:01;;;;;;;28.17;4.43;;;;;;;13.96;49.46;94662.56;5500734;26;20188;-84
2024/04/11 05:46:28;;;;;;;24.67;4.15;;;;;;;14.02;49.55;94669.34;5501615;26;19982;-85
2024/04/11 05:48:53;;;;;;;36.40;4.30;;;;;;;14.14;49.53;94667.91;5501451;26;19990;-84
2024/04/11 05:51:20;;;;;;;24.33;4.15;;;;;;;14.17;49.15;94672.66;5501000;26;19990;-85
2024/04/11 05:53:46;;;;;;;42.38;4.53;;;;;;;14.29;47.92;94666.63;5501346;26;19994;-84
2024/04/11 05:56:13;;;;;;;34.60;5.63;;;;;;;14.36;48.14;94675.78;5501443;26;20167;-84
2024/04/11 05:58:39;;;;;;;40.33;5.97;;;;;;;14.47;47.47;94675.47;5502091;26;19996;-85
2024/04/11 06:01:36;;;;;;;27.27;3.97;;;;;;;14.52;47.17;94686.03;5504540;26;20142;-85
2024/04/11 06:04:10;;;;;;;40.35;6.40;;;;;;;14.60;45.89;94687.94;5504431;26;19994;-85
2024/04/11 06:06:42;;;;;;;26.50;4.10;;;;;;;14.65;45.29;94682.41;5505303;26;19996;-87
2024/04/11 06:09:08;;;;;;;14.73;3.95;;;;;;;14.72;45.64;94696.13;5504578;26;20042;-86
2024/04/11 06:11:34;;;;;;;25.40;3.85;;;;;;;14.83;46.09;94696.59;5504716;26;19985;-86
2024/04/11 06:14:00;;;;;;;37.80;9.07;;;;;;;14.88;46.61;94704.47;5504713;26;19986;-86
2024/04/11 06:16:25;;;;;;;48.45;8.45;;;;;;;14.99;46.88;94708.38;5504761;26;20034;-86
2024/04/11 06:18:54;;;;;;;22.05;4.50;;;;;;;15.10;46.93;94708.84;5505309;26;19993;-79
2024/04/11 06:21:26;;;;;;;22.42;4.65;;;;;;;15.23;46.19;94713.22;5504256;26;20138;-79
2024/04/11 06:23:51;;;;;;;28.58;3.85;;;;;;;15.31;45.59;94719.66;5503703;26;20086;-80
2024/04/11 06:26:17;;;;;;;28.67;3.42;;;;;;;15.40;44.91;94723.09;5503896;26;19986;-80
2024/04/11 06:28:44;;;;;;;26.00;3.95;;;;;;;15.58;44.92;94723.03;5504321;26;19990;-80
2024/04/11 06:31:12;;;;;;;31.80;3.50;;;;;;;15.74;44.98;94724.09;5503898;26;19993;-80
2024/04/11 06:33:40;;;;;;;29.33;4.50;;;;;;;15.88;45.32;94720.41;5504350;26;19982;-81
2024/04/11 06:36:07;;;;;;;14.95;3.20;;;;;;;15.84;43.80;94726.41;5503476;26;19993;-80
2024/04/11 06:38:32;;;;;;;9.43;2.00;;;;;;;15.99;43.37;94726.97;5504269;26;20111;-80
2024/04/11 06:40:57;;;;;;;8.40;2.17;;;;;;;16.12;42.23;94733.19;5504763;26;19982;-79
2024/04/11 06:43:25;;;;;;;6.63;1.70;;;;;;;16.18;41.28;94734.56;5540915;25;20038;-79
2024/04/11 06:45:50;;;;;;;10.25;2.45;;;;;;;16.24;41.42;94734.06;5541249;26;20138;-77
2024/04/11 06:48:18;;;;;;;4.20;1.80;;;;;;;16.30;41.76;94731.97;5540493;25;19992;-81
2024/04/11 06:50:45;;;;;;;7.72;1.45;;;;;;;16.41;41.52;94743.13;5541290;25;19992;-82
2024/04/11 06:53:11;;;;;;;7.18;1.83;;;;;;;16.49;41.20;94736.91;5541269;25;19989;-83
2024/04/11 06:55:36;;;;;;;7.93;1.95;;;;;;;16.57;41.47;94730.66;5540673;26;20021;-77
2024/04/11 06:58:06;;;;;;;9.18;1.92;;;;;;;16.69;40.57;94731.81;5540578;26;19993;-79
2024/04/11 07:00:38;;;;;;;8.75;2.22;;;;;;;16.78;40.33;94737.91;5541328;25;20078;-80
2024/04/11 07:03:16;;;;;;;6.93;1.77;;;;;;;16.90;40.42;94738.00;5540812;26;19986;-80
2024/04/11 07:05:52;;;;;;;15.32;3.10;;;;;;;16.98;40.17;94744.44;5540820;26;19986;-81
2024/04/11 07:08:25;;;;;;;10.65;2.17;;;;;;;17.03;40.25;94749.59;5541069;25;20200;-81
2024/04/11 07:10:53;;;;;;;13.65;2.05;;;;;;;17.14;40.52;94747.28;5540997;26;20196;-81
2024/04/11 07:13:18;;;;;;;7.75;1.70;;;;;;;17.28;40.04;94757.72;5540622;25;20085;-78
2024/04/11 07:15:44;;;;;;;19.27;2.45;;;;;;;17.34;39.17;94751.81;5540727;26;19982;-82
2024/04/11 07:18:14;;;;;;;13.52;1.90;;;;;;;17.40;38.99;94755.88;5541212;26;20039;-82
2024/04/11 07:20:46;;;;;;;14.93;2.75;;;;;;;17.41;38.44;94762.81;5540948;26;20001;-81
2024/04/11 07:23:12;;;;;;;14.30;2.22;;;;;;;17.39;37.89;94765.06;5537838;25;19985;-81
2024/04/11 07:25:38;;;;;;;11.00;2.55;;;;;;;17.40;37.88;94765.84;5537917;25;20037;-83
2024/04/11 07:28:07;;;;;;;7.22;1.77;;;;;;;17.48;37.76;94764.19;5540012;26;19997;-82
2024/04/11 07:30:35;;;;;;;16.70;2.60;;;;;;;17.58;37.91;94766.44;5538634;26;19985;-82
2024/04/11 07:33:02;;;;;;;13.38;2.53;;;;;;;17.67;38.04;94769.84;5538018;25;20037;-85
2024/04/11 07:35:30;;;;;;;9.13;1.77;;;;;;;17.75;37.45;94779.72;5538555;26;20084;-82
2024/04/11 07:37:58;;;;;;;7.78;2.17;;;;;;;17.82;36.84;94771.84;5538259;26;19993;-83
2024/04/11 07:40:32;;;;;;;14.57;2.03;;;;;;;17.88;36.34;94769.75;5538035;26;19986;-83
2024/04/11 07:43:09;;;;;;;8.00;1.80;;;;;;;17.90;36.27;94777.50;5537657;25;19992;-83
2024/04/11 07:45:40;;;;;;;17.73;2.35;;;;;;;17.95;36.26;94779.97;5538226;25;19982;-82
2024/04/11 07:48:12;;;;;;;9.10;2.22;;;;;;;17.88;36.38;94769.75;5540156;26;19997;-83
2024/04/11 07:50:38;;;;;;;8.68;1.77;;;;;;;17.97;36.57;94775.03;5509078;26;19990;-83
2024/04/11 07:53:12;;;;;;;10.77;2.13;;;;;;;18.03;37.06;94769.09;5540627;26;20014;-83
2024/04/11 07:55:54;;;;;;;8.93;2.35;;;;;;;18.11;36.41;94778.16;5540337;25;19992;-83
2024/04/11 07:58:20;;;;;;;5.10;1.95;;;;;;;18.18;35.62;94769.53;5539328;25;19989;-83
2024/04/11 08:00:50;;;;;;;6.38;1.83;;;;;;;18.17;34.89;94770.63;5505461;26;19985;-83
2024/04/11 08:03:17;;;;;;;5.20;2.00;;;;;;;18.20;34.03;94769.97;5506567;26;20014;-83
2024/04/11 08:05:47;;;;;;;8.25;1.80;;;;;;;18.21;35.10;94772.31;5538773;26;19990;-83
2024/04/11 08:08:12;;;;;;;13.82;1.80;;;;;;;18.23;34.19;94775.47;5539213;25;19996;-83
2024/04/11 08:10:38;;;;;;;13.30;2.10;;;;;;;18.31;34.35;94779.16;5538957;26;19985;-83
2024/04/11 08:13:04;;;;;;;11.45;1.65;;;;;;;18.40;34.54;94774.44;5538260;26;20009;-82
2024/04/11 08:15:30;;;;;;;13.10;1.70;;;;;;;18.53;33.94;94777.91;5538189;26;20010;-82
2024/04/11 08:17:56;;;;;;;4.93;1.80;;;;;;;18.63;33.34;94790.91;5539800;25;19985;-82
2024/04/11 08:20:23;;;;;;;7.18;2.15;;;;;;;18.72;33.55;94781.91;5539186;25;20041;-82
2024/04/11 08:22:48;;;;;;;8.90;2.90;;;;;;;18.77;32.42;94787.06;5507318;26;19981;-82
2024/04/11 08:25:13;;;;;;;7.47;2.20;;;;;;;18.83;32.42;94791.91;5539646;26;19997;-82
2024/04/11 08:27:39;;;;;;;4.15;1.77;;;;;;;18.90;32.45;94794.03;5539528;25;20177;-83
2024/04/11 08:30:12;;;;;;;4.93;1.83;;;;;;;18.95;31.67;94796.50;5507583;26;19997;-83
2024/04/11 08:32:45;;;;;;;10.80;3.00;;;;;;;19.08;31.44;94786.41;5539344;26;19981;-83
2024/04/11 08:35:12;;;;;;;19.02;2.25;;;;;;;19.22;31.45;94791.44;5539570;26;19985;-83
2024/04/11 08:37:38;;;;;;;11.00;2.20;;;;;;;19.24;31.43;94791.88;5539411;25;20216;-83
2024/04/11 08:40:10;;;;;;;16.10;2.25;;;;;;;19.28;31.47;94798.16;5539704;26;20042;-83
2024/04/11 08:42:38;;;;;;;13.27;2.28;;;;;;;19.38;31.83;94784.13;5507677;26;19996;-82
2024/04/11 08:45:06;;;;;;;18.67;2.58;;;;;;;19.50;31.36;94793.28;5539616;25;20045;-82
2024/04/11 08:47:34;;;;;;;7.97;2.55;;;;;;;19.62;30.55;94787.81;5539407;26;20197;-83
2024/04/11 08:50:00;;;;;;;9.77;2.45;;;;;;;19.70;30.47;94784.19;5539566;25;19985;-83
2024/04/11 08:52:31;;;;;;;15.57;2.53;;;;;;;19.76;30.11;94785.53;5540042;25;20035;-82
2024/04/11 08:54:57;;;;;;;17.35;2.35;;;;;;;19.82;29.46;94784.13;5539712;26;20000;-82
2024/04/11 08:57:23;;;;;;;18.83;1.80;;;;;;;19.89;27.92;94797.03;5539183;25;20009;-84
2024/04/11 08:59:51;;;;;;;3.33;1.88;;;;;;;19.99;29.61;94795.72;5539330;26;19985;-81
2024/04/11 09:02:16;;;;;;;15.35;2.05;;;;;;;20.08;29.12;94788.19;5538953;26;20145;-81
2024/04/11 09:04:42;;;;;;;12.50;1.77;;;;;;;20.09;27.18;94789.78;5539174;26;19985;-85
2024/04/11 09:07:20;;;;;;;3.92;1.77;;;;;;;20.07;27.63;94781.22;5538969;25;19989;-85
2024/04/11 09:09:52;;;;;;;5.90;2.10;;;;;;;20.06;26.53;94785.06;5538896;26;19997;-86
2024/04/11 09:12:22;;;;;;;15.15;2.35;;;;;;;20.11;26.66;94786.69;5539342;25;20193;-86
2024/04/11 09:14:48;;;;;;;5.80;1.80;;;;;;;20.08;25.87;94787.41;5507447;26;20096;-88
2024/04/11 09:17:16;;;;;;;12.25;2.17;;;;;;;20.00;24.42;94779.13;5539369;25;20005;-83
2024/04/11 09:19:45;;;;;;;7.82;1.80;;;;;;;20.08;24.08;94782.78;5538834;25;19985;-83
2024/04/11 09:22:12;;;;;;;15.10;1.73;;;;;;;20.11;23.94;94782.09;5507230;26;19981;-84
2024/04/11 09:24:39;;;;;;;9.65;1.50;;;;;;;20.13;23.77;94784.44;5538764;25;19981;-83
2024/04/11 09:27:05;;;;;;;6.57;1.90;;;;;;;20.17;24.85;94775.28;5538954;26;19982;-83
2024/04/11 09:29:32;;;;;;;3.80;1.85;;;;;;;20.30;24.50;94784.06;5507123;26;19981;-84
2024/04/11 09:31:58;;;;;;;10.63;1.75;;;;;;;20.42;24.38;94783.97;5539744;25;20001;-79
2024/04/11 09:34:29;;;;;;;6.72;1.65;;;;;;;20.53;24.52;94784.19;5538160;25;20367;-84
2024/04/11 09:36:59;;;;;;;13.75;1.77;;;;;;;20.66;24.83;94779.47;5539932;25;19981;-84
2024/04/11 09:39:46;;;;;;;6.45;2.03;;;;;;;20.79;24.61;94780.91;5539563;26;19988;-84
2024/04/11 09:42:19;;;;;;;4.47;1.73;;;;;;;20.84;21.94;94786.06;5537642;25;20032;-83
2024/04/11 09:44:48;;;;;;;6.18;1.63;;;;;;;20.92;21.12;94786.19;5506809;26;20013;-85
2024/04/11 09:47:18;;;;;;;6.00;1.73;;;;;;;20.94;21.28;94779.25;5538605;25;19985;-91
2024/04/11 09:49:53;;;;;;;8.85;2.20;;;;;;;20.89;20.60;94782.25;5540452;26;20039;-90
2024/04/11 09:52:21;;;;;;;9.10;1.40;;;;;;;21.02;20.20;94782.91;5538998;26;19985;-89
2024/04/11 09:54:51;;;;;;;3.53;1.30;;;;;;;21.13;20.37;94785.84;5507173;25;20161;-90
2024/04/11 09:57:21;;;;;;;6.88;2.05;;;;;;;21.14;20.42;94776.56;5507978;26;19990;-92
2024/04/11 09:59:47;;;;;;;2.60;1.30;;;;;;;21.28;20.39;94781.47;5538780;25;19990;-90
2024/04/11 10:02:15;;;;;;;8.23;1.90;;;;;;;21.41;20.04;94770.09;5539565;26;20088;-89
2024/04/11 10:04:42;;;;;;;6.60;2.03;;;;;;;21.50;19.59;94777.25;5538930;25;20092;-90
2024/04/11 10:07:15;;;;;;;7.63;1.38;;;;;;;21.46;18.71;94770.97;5539211;25;19989;-91
2024/04/11 10:09:49;;;;;;;4.35;1.58;;;;;;;21.42;19.57;94773.59;5539310;26;19985;-90
2024/04/11 10:12:19;;;;;;;4.53;1.55;;;;;;;21.47;19.79;94772.53;5538920;25;20042;-88
2024/04/11 10:15:18;;;;;;;4.10;1.45;;;;;;;21.59;19.55;94781.28;5507043;26;19996;-89
2024/04/11 10:18:10;;;;;;;11.82;1.60;;;;;;;21.71;19.33;94776.84;5528423;26;19985;-87
2024/04/11 10:21:02;;;;;;;5.73;1.60;;;;;;;;;;5525066;25;20000;-84
2024/04/11 10:23:32;;;;;;;5.60;2.40;;;;;;;21.88;17.48;94770.94;5537972;25;19982;-85
2024/04/11 10:25:59;;;;;;;2.03;1.20;;;;;;;21.90;18.89;94781.41;5505572;26;20192;-86
2024/04/11 10:28:41;;;;;;;6.28;2.88;;;;;;;22.00;19.46;94778.88;5537497;25;19988;-84
2024/04/11 10:31:12;;;;;;;4.43;1.30;;;;;;;22.11;18.03;94778.28;5537640;25;19991;-89
2024/04/11 10:33:53;;;;;;;2.63;1.10;;;;;;;22.18;18.08;94776.41;5538802;25;19993;-87
2024/04/11 10:36:25;;;;;;;3.50;1.25;;;;;;;22.24;17.65;94775.00;5507252;26;19985;-87
2024/04/11 10:38:52;;;;;;;3.45;1.27;;;;;;;22.32;18.10;94775.13;5507461;26;19989;-88
2024/04/11 10:41:20;;;;;;;2.78;1.30;;;;;;;22.43;18.65;94779.56;5538014;26;19996;-90
2024/04/11 10:43:49;;;;;;;2.70;1.15;;;;;;;22.54;18.93;94768.06;5537392;25;19981;-86
2024/04/11 10:46:20;;;;;;;3.88;1.30;;;;;;;22.67;18.40;94779.47;5540266;25;20073;-87
2024/04/11 10:48:47;;;;;;;5.22;1.38;;;;;;;22.61;17.22;94777.09;5541498;25;19997;-87
2024/04/11 10:51:13;;;;;;;4.53;1.05;;;;;;;22.56;17.25;94771.19;5541777;26;19992;-88
2024/04/11 10:53:47;;;;;;;9.88;1.95;;;;;;;22.61;18.16;94771.66;5509135;26;19981;-87
2024/04/11 10:56:22;;;;;;;2.97;1.17;;;;;;;22.77;19.11;94779.59;5509337;26;19985;-88
2024/04/11 10:58:53;;;;;;;2.17;1.17;;;;;;;22.94;19.52;94772.84;5541229;25;19988;-88
2024/04/11 11:01:26;;;;;;;5.43;1.38;;;;;;;22.99;17.12;94769.78;5541201;26;19996;-87
2024/04/11 11:03:57;;;;;;;3.13;1.40;;;;;;;22.95;17.87;94765.47;5509514;26;19985;-87
2024/04/11 11:06:24;;;;;;;7.30;1.23;;;;;;;22.91;16.84;94768.13;5541179;26;20118;-88
2024/04/11 11:09:00;;;;;;;7.93;1.58;;;;;;;22.92;17.28;94764.28;5540828;25;19985;-87
2024/04/11 11:11:26;;;;;;;3.92;1.83;;;;;;;23.03;18.91;94761.72;5540906;25;19993;-89
2024/04/11 11:13:54;;;;;;;10.70;1.50;;;;;;;23.04;17.75;94760.56;5540554;25;19992;-88
2024/04/11 11:16:25;;;;;;;5.53;1.45;;;;;;;23.03;17.39;94759.00;5509291;26;20129;-87
2024/04/11 11:18:52;;;;;;;3.45;1.58;;;;;;;23.16;17.96;94751.34;5541097;25;20037;-87
2024/04/11 11:21:22;;;;;;;5.68;1.90;;;;;;;23.30;18.00;94756.94;5540937;26;19989;-88
2024/04/11 11:23:59;;;;;;;2.58;1.23;;;;;;;23.42;17.29;94751.25;5541279;25;20022;-89
2024/04/11 11:26:35;;;;;;;2.88;1.27;;;;;;;23.50;18.50;94751.34;5541006;25;19985;-89
2024/04/11 11:29:11;;;;;;;16.20;2.95;;;;;;;23.61;19.41;94753.00;5509558;26;20072;-88
2024/04/11 11:31:37;;;;;;;6.65;1.30;;;;;;;23.82;19.81;94757.88;5540737;25;20057;-89
2024/04/11 11:34:10;;;;;;;11.23;1.55;;;;;;;24.01;19.60;94758.81;5540359;25;19989;-90
2024/04/11 11:36:47;;;;;;;4.05;1.40;;;;;;;24.22;18.96;94748.06;5509488;26;19987;-89